TimeWET,TemperatureF,Dew PointF,Humidity,Sea Level PressureIn,VisibilityMPH,Wind Direction,Wind SpeedMPH,Gust SpeedMPH,PrecipitationIn,Events,Conditions,WindDirDegrees,DateUTC
12:00 AM,49,44,76,30.15,6,South,5.8,,,,Scattered Clouds,190,2012-11-13 00:00:00
12:00 AM,48.2,44.6,87,30.12,6.2,South,5.8,-,N/A,,Scattered Clouds,190,2012-11-13 00:00:00
1:00 AM,48.2,42.8,82,30.12,6.2,South,3.5,-,N/A,,Scattered Clouds,180,2012-11-13 01:00:00
2:00 AM,48.2,42.8,82,30.12,6.2,SSE,3.5,-,N/A,,Scattered Clouds,160,2012-11-13 02:00:00
3:00 AM,49,43,74,30.13,6,Calm,Calm,,,,Scattered Clouds,,2012-11-13 03:00:00
3:00 AM,48.2,42.8,82,30.12,6.2,Calm,Calm,-,N/A,,Scattered Clouds,0,2012-11-13 03:00:00
4:00 AM,48.2,42.8,82,30.09,6.2,South,3.5,-,N/A,,Scattered Clouds,170,2012-11-13 04:00:00
5:00 AM,50.0,44.6,82,30.09,6.2,SSW,3.5,-,N/A,,Scattered Clouds,210,2012-11-13 05:00:00
6:00 AM,49,44,76,30.12,6,South,4.6,,,,Clear,190,2012-11-13 06:00:00
6:00 AM,48.2,44.6,87,30.09,-9999.0,South,4.6,-,N/A,,Clear,190,2012-11-13 06:00:00
7:00 AM,48.2,42.8,82,30.09,6.2,South,3.5,-,N/A,,Scattered Clouds,180,2012-11-13 07:00:00
8:00 AM,50.0,42.8,76,30.12,6.2,South,2.3,-,N/A,,Scattered Clouds,180,2012-11-13 08:00:00
9:00 AM,54,45,63,30.12,6,WSW,3.5,,,,Partly Cloudy,240,2012-11-13 09:00:00
9:00 AM,55.4,44.6,67,30.12,-9999.0,WSW,3.5,-,N/A,,Clear,240,2012-11-13 09:00:00
10:00 AM,57.2,44.6,63,30.12,6.2,WSW,5.8,-,N/A,,Partly Cloudy,240,2012-11-13 10:00:00
11:00 AM,59.0,44.6,59,30.09,6.2,WSW,4.6,-,N/A,,Scattered Clouds,250,2012-11-13 11:00:00
12:00 PM,60,44,45,30.06,6,West,8.1,,,,Partly Cloudy,280,2012-11-13 12:00:00
12:00 PM,60.8,44.6,55,30.09,6.2,West,8.1,-,N/A,,Scattered Clouds,280,2012-11-13 12:00:00
1:00 PM,60.8,44.6,55,30.06,6.2,West,6.9,-,N/A,,Mostly Cloudy,280,2012-11-13 13:00:00
2:00 PM,59.0,44.6,59,30.06,6.2,West,3.5,-,N/A,,Mostly Cloudy,270,2012-11-13 14:00:00
3:00 PM,59,45,50,30.03,6,West,2.3,,,,Mostly Cloudy,260,2012-11-13 15:00:00
3:00 PM,59.0,44.6,59,30.06,6.2,West,2.3,-,N/A,,Mostly Cloudy,260,2012-11-13 15:00:00
4:00 PM,59.0,44.6,59,30.04,6.2,West,2.3,-,N/A,,Mostly Cloudy,260,2012-11-13 16:00:00
5:00 PM,60.8,46.4,59,30.04,6.2,SW,3.5,-,N/A,,Scattered Clouds,230,2012-11-13 17:00:00
6:00 PM,58,46,54,30.02,6,West,2.3,,,,Partly Cloudy,270,2012-11-13 18:00:00
6:00 PM,57.2,46.4,67,30.04,6.2,West,2.3,-,N/A,,Scattered Clouds,270,2012-11-13 18:00:00
7:00 PM,55.4,46.4,72,30.04,6.2,WNW,2.3,-,N/A,,Partly Cloudy,300,2012-11-13 19:00:00
8:00 PM,53.6,46.4,77,30.06,6.2,West,2.3,-,N/A,,Partly Cloudy,270,2012-11-13 20:00:00
9:00 PM,52,48,82,30.06,6,WNW,2.3,,,,Scattered Clouds,300,2012-11-13 21:00:00
9:00 PM,51.8,48.2,88,30.06,6.2,WNW,2.3,-,N/A,,Partly Cloudy,300,2012-11-13 21:00:00
10:00 PM,48.2,44.6,87,30.06,6.2,ESE,2.3,-,N/A,,Partly Cloudy,120,2012-11-13 22:00:00
11:00 PM,50.0,48.2,94,30.04,6.2,SSE,3.5,-,N/A,,Partly Cloudy,150,2012-11-13 23:00:00